Time;durP1;ratioP1;P1;durP2;ratioP2;P2;SDS_P1;SDS_P2;PMS_P1;PMS_P2;Temp;Humidity;BMP_temperature;BMP_pressure;BME280_temperature;BME280_humidity;BME280_pressure;Samples;Min_cycle;Max_cycle;Signal;HPM_P1;HPM_P2
2022/05/18 00:02:08;;;;;;;;;4.00;4.00;;;;;25.89;46.46;101389.00;5082195;27;45263;-67
2022/05/18 00:04:34;;;;;;;;;4.75;4.25;;;;;25.87;46.28;101383.66;5081150;27;45478;-67
2022/05/18 00:06:59;;;;;;;;;5.50;5.50;;;;;25.84;46.60;101386.69;5082332;27;45204;-67
2022/05/18 00:09:24;;;;;;;;;3.75;3.75;;;;;25.81;46.72;101389.66;5082094;27;45866;-67
2022/05/18 00:11:50;;;;;;;;;6.50;5.00;;;;;25.83;46.90;101386.81;5082107;27;45444;-67
2022/05/18 00:14:16;;;;;;;;;5.25;5.00;;;;;25.80;46.66;101389.81;5080980;27;45662;-66
2022/05/18 00:17:03;;;;;;;;;5.00;4.00;;;;;25.77;46.42;101396.41;5068143;27;45293;-67
2022/05/18 00:19:29;;;;;;;;;5.00;4.25;;;;;25.72;46.41;101382.25;5088614;27;45532;-67
2022/05/18 00:21:55;;;;;;;;;6.50;5.25;;;;;25.60;46.69;101362.31;5097477;27;45851;-67
2022/05/18 00:24:21;;;;;;;;;2.00;2.00;;;;;25.71;47.01;101391.47;5079591;27;45595;-67
2022/05/18 00:26:46;;;;;;;;;7.00;6.50;;;;;25.66;46.53;101390.97;5081929;28;45435;-66
2022/05/18 00:29:14;;;;;;;;;5.25;4.00;;;;;25.66;46.80;101396.44;5081513;28;45492;-67
2022/05/18 00:31:41;;;;;;;;;4.00;4.00;;;;;25.60;47.61;101388.78;5081892;27;45493;-67
2022/05/18 00:34:08;;;;;;;;;5.50;5.50;;;;;25.59;47.11;101395.25;5078339;27;45363;-66
2022/05/18 00:36:33;;;;;;;;;3.75;3.75;;;;;25.38;47.88;101371.50;5081863;27;45338;-67
2022/05/18 00:38:59;;;;;;;;;5.25;5.25;;;;;25.46;47.72;101404.50;5081122;28;45299;-67
2022/05/18 00:41:25;;;;;;;;;7.00;5.00;;;;;25.38;47.52;101387.03;5081749;27;45744;-67
2022/05/18 00:43:53;;;;;;;;;5.25;5.00;;;;;25.44;48.31;101422.91;5079079;27;45508;-67
2022/05/18 00:46:26;;;;;;;;;5.75;5.50;;;;;25.43;47.83;101423.03;5081585;27;45232;-67
2022/05/18 00:48:53;;;;;;;;;6.00;6.00;;;;;25.40;48.90;101426.03;5082280;27;45759;-67
2022/05/18 00:51:36;;;;;;;;;6.00;5.00;;;;;25.28;49.05;101409.66;5080030;28;45332;-67
2022/05/18 00:54:25;;;;;;;;;5.25;5.25;;;;;25.30;48.79;101420.47;5082225;27;45575;-66
2022/05/18 00:56:58;;;;;;;;;4.75;4.50;;;;;25.22;49.01;101418.34;5079908;27;45615;-67
2022/05/18 00:59:29;;;;;;;;;6.75;5.75;;;;;25.06;49.43;101396.03;5081196;27;45336;-67
2022/05/18 01:01:57;;;;;;;;;5.75;5.75;;;;;25.18;49.26;101421.47;5079626;27;45598;-67
2022/05/18 01:04:25;;;;;;;;;9.00;6.25;;;;;25.04;49.43;101408.94;5080315;27;45670;-67
2022/05/18 01:07:07;;;;;;;;;6.50;5.00;;;;;25.17;49.81;101436.97;5078909;27;45444;-67
2022/05/18 01:09:39;;;;;;;;;4.75;4.75;;;;;25.00;49.63;101416.53;5080986;27;46145;-67
2022/05/18 01:12:07;;;;;;;;;5.25;5.00;;;;;25.06;49.69;101426.06;5079572;28;45954;-66
2022/05/18 01:14:39;;;;;;;;;6.25;6.00;;;;;24.78;49.81;101391.00;5074001;27;45407;-67
2022/05/18 01:17:06;;;;;;;;;5.75;5.75;;;;;24.94;50.23;101419.75;5080255;28;45421;-66
2022/05/18 01:19:36;;;;;;;;;7.00;7.00;;;;;24.93;49.84;101418.91;5089619;27;45327;-66
2022/05/18 01:22:07;;;;;;;;;4.50;4.50;;;;;25.05;50.32;101436.13;5096650;27;45258;-66
2022/05/18 01:24:48;;;;;;;;;5.75;5.75;;;;;24.98;50.22;101440.38;5079720;28;45191;-67
2022/05/18 01:27:14;;;;;;;;;6.00;6.00;;;;;24.85;50.36;101418.66;5081030;27;45393;-66
2022/05/18 01:29:40;;;;;;;;;6.00;5.75;;;;;24.94;50.37;101445.22;5080468;27;45292;-66
2022/05/18 01:32:06;;;;;;;;;3.75;3.75;;;;;24.88;50.34;101439.41;5078856;28;45378;-66
2022/05/18 01:34:34;;;;;;;;;6.25;6.25;;;;;24.62;50.38;101411.50;5095294;27;45321;-66
2022/05/18 01:37:00;;;;;;;;;7.00;5.00;;;;;24.70;50.81;101425.38;5080896;28;45283;-66
2022/05/18 01:39:25;;;;;;;;;5.25;5.25;;;;;24.82;50.89;101448.09;5066974;27;46046;-66
2022/05/18 01:42:06;;;;;;;;;5.75;5.75;;;;;24.82;50.07;101464.47;5080670;27;45223;-67
2022/05/18 01:44:35;;;;;;;;;5.25;5.25;;;;;24.51;50.60;101410.47;5079554;27;45527;-66
2022/05/18 01:47:01;;;;;;;;;5.25;5.00;;;;;24.59;50.82;101426.25;5078959;27;45490;-66
2022/05/18 01:49:27;;;;;;;;;7.00;6.00;;;;;24.80;50.71;101463.72;5081009;27;45438;-67
2022/05/18 01:51:57;;;;;;;;;6.25;5.00;;;;;24.60;50.63;101430.72;5079857;27;45371;-66
2022/05/18 01:54:23;;;;;;;;;7.75;5.50;;;;;24.60;50.87;101437.03;5078301;27;45394;-66
2022/05/18 01:56:49;;;;;;;;;7.25;4.75;;;;;24.74;51.00;101448.69;5078556;27;45746;-66
2022/05/18 01:59:14;;;;;;;;;5.00;5.00;;;;;24.62;50.74;101449.72;5079017;27;48211;-67
2022/05/18 02:01:40;;;;;;;;;6.25;5.00;;;;;24.68;50.96;101457.41;5080191;27;45231;-66
2022/05/18 02:04:06;;;;;;;;;3.75;3.75;;;;;24.60;51.14;101450.69;5079188;27;45448;-66
2022/05/18 02:06:33;;;;;;;;;5.00;4.25;;;;;24.35;51.40;101421.75;5095795;27;45614;-67
2022/05/18 02:08:59;;;;;;;;;7.00;5.00;;;;;24.50;51.39;101446.06;5080066;28;45397;-66
2022/05/18 02:11:25;;;;;;;;;6.00;6.00;;;;;24.41;51.81;101445.81;5078813;28;45366;-67
2022/05/18 02:13:53;;;;;;;;;3.00;3.00;;;;;24.47;51.70;101459.97;5078985;27;45428;-67
2022/05/18 02:16:20;;;;;;;;;5.50;5.50;;;;;24.45;52.02;101478.31;5077894;27;45417;-67
2022/05/18 02:18:48;;;;;;;;;3.25;3.25;;;;;24.23;51.96;101445.41;5099789;27;47665;-67
2022/05/18 02:21:13;;;;;;;;;4.00;4.00;;;;;24.39;52.19;101491.47;5083956;27;45669;-66
2022/05/18 02:23:41;;;;;;;;;5.25;4.50;;;;;24.09;52.38;101444.75;5077985;28;45371;-67
2022/05/18 02:26:17;;;;;;;;;4.00;4.00;;;;;24.32;52.30;101492.06;5079731;27;45457;-67
2022/05/18 02:28:45;;;;;;;;;6.00;6.00;;;;;24.30;52.29;101489.44;5080088;27;46383;-66
2022/05/18 02:31:12;;;;;;;;;5.50;5.50;;;;;24.27;52.20;101497.00;5078556;27;45484;-66
2022/05/18 02:33:40;;;;;;;;;6.25;5.00;;;;;24.26;52.23;101504.34;5078534;27;45492;-66
2022/05/18 02:36:10;;;;;;;;;5.75;4.00;;;;;24.26;52.53;101501.59;5079499;28;45412;-67
2022/05/18 02:38:36;;;;;;;;;5.75;5.75;;;;;23.98;52.31;101468.28;5078456;27;48223;-66
2022/05/18 02:41:01;;;;;;;;;9.00;4.00;;;;;24.11;52.16;101498.22;5078513;28;45331;-66
2022/05/18 02:43:28;;;;;;;;;5.00;5.00;;;;;24.20;52.73;101526.63;5079736;27;45297;-66
2022/05/18 02:46:01;;;;;;;;;4.75;4.75;;;;;24.17;52.54;101532.31;5077236;28;45338;-67
2022/05/18 02:48:27;;;;;;;;;4.00;4.00;;;;;24.06;52.56;101524.97;5083412;27;45502;-66
2022/05/18 02:50:52;;;;;;;;;2.50;2.00;;;;;23.99;53.10;101526.41;5100014;27;45324;-66
2022/05/18 02:53:18;;;;;;;;;4.50;4.50;;;;;23.89;52.46;101523.56;5094903;27;45403;-66
2022/05/18 02:58:27;;;;;;;;;6.00;4.00;;;;;23.79;53.02;101523.34;5075999;28;45771;-66
2022/05/18 03:00:53;;;;;;;;;6.25;4.50;;;;;23.86;52.66;101540.13;5079436;27;45404;-67
2022/05/18 03:03:20;;;;;;;;;3.75;3.75;;;;;23.83;53.25;101534.91;5080599;27;45423;-66
2022/05/18 03:05:46;;;;;;;;;3.00;3.00;;;;;23.66;52.57;101517.09;5096629;27;45576;-67
2022/05/18 03:08:12;;;;;;;;;4.00;4.00;;;;;23.77;52.76;101540.78;5100724;27;46051;-66
2022/05/18 03:10:37;;;;;;;;;3.00;3.00;;;;;23.73;52.73;101539.28;5103287;27;45423;-66
2022/05/18 03:13:02;;;;;;;;;4.00;4.00;;;;;23.69;52.66;101530.47;5092808;27;45665;-66
2022/05/18 03:15:28;;;;;;;;;3.75;3.75;;;;;23.44;52.65;101486.00;5093684;27;45835;-66
2022/05/18 03:17:53;;;;;;;;;3.75;3.75;;;;;23.48;52.76;101501.13;5081121;27;48156;-66
2022/05/18 03:25:47;;;;;;;;;2.25;2.25;;;;;23.47;52.61;101523.91;5081210;27;45655;-66
2022/05/18 03:28:12;;;;;;;;;2.00;1.00;;;;;23.42;52.43;101526.13;5081122;27;47111;-66
2022/05/18 03:30:37;;;;;;;;;2.00;2.00;;;;;23.31;51.99;101516.00;5082697;27;45248;-65
2022/05/18 03:33:03;;;;;;;;;1.00;1.00;;;;;23.42;51.75;101542.47;5081341;27;45520;-66
2022/05/18 03:35:29;;;;;;;;;1.25;1.25;;;;;23.36;51.51;101548.34;5080174;27;45586;-66
2022/05/18 03:37:54;;;;;;;;;1.75;1.75;;;;;23.31;51.80;101551.41;5079956;27;48330;-65
2022/05/18 03:40:20;;;;;;;;;2.00;2.00;;;;;23.32;51.58;101563.16;5082713;27;45317;-66
2022/05/18 03:42:45;;;;;;;;;2.25;2.00;;;;;23.32;51.71;101568.63;5095730;27;45279;-66
2022/05/18 03:45:11;;;;;;;;;2.00;2.00;;;;;23.14;51.86;101549.06;5082181;27;45226;-66
2022/05/18 03:47:36;;;;;;;;;2.00;1.75;;;;;23.20;51.84;101577.69;5079479;27;47940;-66
2022/05/18 03:50:02;;;;;;;;;1.75;1.75;;;;;23.21;51.66;101583.03;5080831;27;45969;-66
2022/05/18 03:52:27;;;;;;;;;1.50;1.50;;;;;23.12;52.16;101576.41;5082652;27;45433;-66
2022/05/18 03:54:53;;;;;;;;;2.00;1.75;;;;;23.20;52.48;101591.31;5087069;27;45610;-66
2022/05/18 03:57:19;;;;;;;;;2.00;2.00;;;;;23.11;52.32;101581.97;5079842;27;47329;-66
2022/05/18 03:59:44;;;;;;;;;3.00;3.00;;;;;23.00;51.98;101585.41;5082090;27;45267;-65
2022/05/18 04:02:09;;;;;;;;;2.25;2.00;;;;;23.05;51.91;101598.69;5082350;27;45805;-66
2022/05/18 04:04:35;;;;;;;;;2.50;1.50;;;;;22.69;51.29;101554.09;5082014;27;45528;-66
2022/05/18 04:07:01;;;;;;;;;1.00;1.00;;;;;22.97;51.28;101614.72;5079840;27;47983;-66
2022/05/18 04:09:26;;;;;;;;;1.75;1.00;;;;;22.73;51.33;101580.94;5082092;27;45361;-66
2022/05/18 04:11:52;;;;;;;;;1.00;1.00;;;;;22.76;51.03;101594.34;5082273;27;45885;-66
2022/05/18 04:14:17;;;;;;;;;0.25;0.25;;;;;22.79;50.75;101598.72;5097057;27;45326;-66
2022/05/18 04:16:48;;;;;;;;;3.00;1.00;;;;;22.67;50.73;101594.13;5076712;27;45473;-66
2022/05/18 04:19:14;;;;;;;;;0.00;0.00;;;;;22.75;50.68;101610.78;5081923;27;45424;-66
2022/05/18 04:21:39;;;;;;;;;1.00;1.00;;;;;22.56;51.11;101581.28;5081897;27;45586;-66
2022/05/18 04:24:05;;;;;;;;;1.00;1.00;;;;;22.76;50.76;101617.97;5081471;27;45365;-66
2022/05/18 04:26:30;;;;;;;;;1.25;1.00;;;;;22.74;50.91;101618.09;5079035;28;47500;-66
2022/05/18 04:28:56;;;;;;;;;1.00;1.00;;;;;22.58;50.47;101596.50;5081838;27;45375;-66
2022/05/18 04:31:21;;;;;;;;;1.00;1.00;;;;;22.60;51.06;101607.28;5081854;27;45790;-65
2022/05/18 04:33:46;;;;;;;;;1.00;1.00;;;;;22.49;50.70;101597.16;5081307;28;45454;-65
2022/05/18 04:36:12;;;;;;;;;1.00;1.00;;;;;22.55;50.73;101613.06;5078359;27;47334;-66
2022/05/18 04:38:37;;;;;;;;;1.00;0.75;;;;;22.33;50.72;101574.72;5059971;28;45739;-66
2022/05/18 04:41:03;;;;;;;;;0.25;0.25;;;;;22.29;50.51;101578.63;5081256;28;45227;-66
2022/05/18 04:43:34;;;;;;;;;1.25;0.75;;;;;22.51;50.63;101616.09;5081206;28;45591;-66
2022/05/18 04:46:01;;;;;;;;;0.00;0.00;;;;;22.47;50.07;101611.81;5079677;27;45479;-66
2022/05/18 04:48:30;;;;;;;;;2.00;1.00;;;;;22.48;50.50;101627.19;5080619;27;45556;-66
2022/05/18 04:50:56;;;;;;;;;2.00;0.50;;;;;22.48;50.35;101638.06;5080067;28;45184;-65
2022/05/18 04:53:21;;;;;;;;;0.00;0.00;;;;;22.32;50.22;101625.53;5091597;27;45485;-66
2022/05/18 04:55:48;;;;;;;;;1.00;0.25;;;;;22.29;50.64;101622.16;5079775;28;45310;-65
2022/05/18 04:58:14;;;;;;;;;1.00;1.00;;;;;22.25;50.18;101623.28;5079926;27;45438;-65
2022/05/18 05:00:40;;;;;;;;;1.00;1.00;;;;;22.35;50.59;101648.91;5080205;27;45269;-65
2022/05/18 05:03:06;;;;;;;;;0.00;0.00;;;;;22.33;50.68;101648.13;5081033;27;45537;-66
2022/05/18 05:05:32;;;;;;;;;0.00;0.00;;;;;22.24;50.30;101643.31;5075083;27;46932;-66
2022/05/18 05:07:57;;;;;;;;;0.75;0.75;;;;;22.23;50.55;101652.44;5074396;27;45465;-66
2022/05/18 05:10:23;;;;;;;;;0.00;0.00;;;;;22.10;50.30;101636.06;5081318;27;45374;-66
2022/05/18 05:12:49;;;;;;;;;0.50;0.00;;;;;21.96;50.43;101615.25;5080886;27;45373;-66
2022/05/18 05:15:15;;;;;;;;;0.00;0.00;;;;;21.92;50.26;101613.69;5074596;27;46349;-69
2022/05/18 05:17:41;;;;;;;;;0.00;0.00;;;;;21.79;50.40;101606.34;5079560;27;45339;-65
2022/05/18 05:20:08;;;;;;;;;1.00;1.00;;;;;21.99;50.82;101647.66;5081180;27;45226;-66
2022/05/18 05:22:33;;;;;;;;;1.50;1.00;;;;;21.91;50.29;101650.00;5082909;27;45624;-66
2022/05/18 05:24:59;;;;;;;;;2.00;0.00;;;;;21.88;50.87;101670.09;5078690;28;47826;-66
2022/05/18 05:27:24;;;;;;;;;2.00;0.25;;;;;21.82;50.78;101654.22;5077900;28;45371;-66
2022/05/18 05:29:50;;;;;;;;;0.00;0.00;;;;;21.85;51.04;101667.56;5079820;27;45735;-66
2022/05/18 05:32:15;;;;;;;;;1.00;1.00;;;;;21.74;50.71;101657.41;5080470;27;45416;-66
2022/05/18 05:34:41;;;;;;;;;1.00;1.00;;;;;21.87;50.64;101687.41;5080539;27;45497;-66
2022/05/18 05:37:07;;;;;;;;;1.75;0.00;;;;;21.73;50.66;101662.94;5078308;27;45380;-66
2022/05/18 05:39:32;;;;;;;;;1.25;1.25;;;;;21.90;50.86;101692.63;5080504;27;45516;-66
2022/05/18 05:41:58;;;;;;;;;0.75;0.75;;;;;21.73;51.13;101668.38;5079379;27;45419;-66
2022/05/18 05:44:24;;;;;;;;;1.00;1.00;;;;;21.83;51.24;101689.44;5080076;27;45394;-66
2022/05/18 05:46:50;;;;;;;;;3.75;0.25;;;;;21.79;51.00;101681.59;5079256;27;45292;-67
2022/05/18 06:45:33;;;;;;;;;;;;;;;;;;;;;
2022/05/18 06:58:28;;;;;;;;;0.25;0.25;;;;;21.64;50.19;101686.16;5030110;28;45516;-70
2022/05/18 07:01:07;;;;;;;;;;;;;;;;;;;;;
2022/05/18 07:03:36;;;;;;;;;1.00;1.00;;;;;21.87;50.44;101716.41;5047961;28;75290;-70
2022/05/18 07:06:05;;;;;;;;;2.00;1.00;;;;;21.77;50.36;101706.13;5060825;28;45442;-70
2022/05/18 07:08:56;;;;;;;;;2.75;2.25;;;;;21.81;50.47;101715.81;5058971;28;45674;-70
2022/05/18 07:11:30;;;;;;;;;1.75;1.00;;;;;21.71;50.22;101686.63;5061095;28;45676;-70
2022/05/18 07:14:05;;;;;;;;;;;;;;;;;;;;;
2022/05/18 07:16:45;;;;;;;;;;;;;;;;;;;;;
2022/05/18 07:19:12;;;;;;;;;1.00;1.00;;;;;21.76;49.70;101670.91;5061299;28;69049;-71
2022/05/18 07:21:37;;;;;;;;;1.25;1.25;;;;;21.97;50.23;101710.28;5043606;28;45781;-70
2022/05/18 07:24:10;;;;;;;;;1.50;1.50;;;;;21.87;49.98;101689.22;5043962;28;48207;-70
2022/05/18 07:26:36;;;;;;;;;1.25;1.25;;;;;21.99;49.99;101715.63;5054624;28;45845;-73
2022/05/18 07:29:05;;;;;;;;;2.00;0.50;;;;;22.00;49.75;101715.53;5038519;28;45385;-70
2022/05/18 07:32:08;;;;;;;;;1.75;1.75;;;;;21.98;50.01;101712.00;5060072;28;45574;-70
2022/05/18 07:34:16;;;;;;;;;1.25;1.00;;;;;22.04;50.68;101721.63;5058261;28;45569;-70
2022/05/18 07:36:42;;;;;;;;;1.25;1.25;;;;;22.09;50.14;101721.34;5061081;28;45501;-69
2022/05/18 07:39:07;;;;;;;;;3.75;2.75;;;;;22.14;50.77;101720.03;5059973;28;45530;-70
2022/05/18 07:41:32;;;;;;;;;2.25;2.00;;;;;22.10;50.11;101707.63;5042722;28;45496;-70
2022/05/18 07:43:58;;;;;;;;;1.25;1.00;;;;;22.16;50.26;101709.94;5061035;28;45446;-70
2022/05/18 07:46:23;;;;;;;;;2.00;1.00;;;;;22.15;51.06;101705.50;5060072;28;45501;-70
2022/05/18 07:48:49;;;;;;;;;1.75;1.75;;;;;22.32;50.76;101723.44;5040740;28;45457;-70
2022/05/18 07:51:15;;;;;;;;;0.00;0.00;;;;;22.33;50.68;101703.41;5052212;28;45462;-70
2022/05/18 07:53:41;;;;;;;;;1.75;1.75;;;;;22.45;50.50;101719.88;5060849;28;45516;-70
2022/05/18 07:56:06;;;;;;;;;4.00;3.00;;;;;22.43;50.47;101714.53;5058884;28;45533;-70
2022/05/18 07:58:32;;;;;;;;;1.00;1.00;;;;;22.37;50.75;101695.94;5037473;28;45577;-70
2022/05/18 08:00:57;;;;;;;;;3.00;2.75;;;;;22.31;50.33;101686.31;5060420;28;45277;-70
2022/05/18 08:03:22;;;;;;;;;3.75;1.50;;;;;22.54;51.07;101717.41;5036828;28;48275;-69
2022/05/18 08:05:48;;;;;;;;;3.00;2.00;;;;;22.47;50.80;101694.34;5035676;28;45416;-68
2022/05/18 08:08:17;;;;;;;;;2.00;2.00;;;;;22.49;50.46;101695.09;5042093;28;45728;-68
2022/05/18 08:16:12;;;;;;;;;3.00;2.75;;;;;22.74;50.49;101713.34;5045963;28;45407;-69
2022/05/18 08:18:38;;;;;;;;;1.75;1.75;;;;;22.77;50.51;101706.84;5053390;28;45443;-76
2022/05/18 08:21:04;;;;;;;;;4.00;3.00;;;;;22.92;50.48;101715.75;5042217;28;45867;-72
2022/05/18 08:23:29;;;;;;;;;5.00;3.00;;;;;22.98;50.73;101717.19;5059240;28;45804;-74
2022/05/18 08:25:56;;;;;;;;;3.25;3.25;;;;;23.01;50.61;101714.28;5041514;28;45414;-73
2022/05/18 08:28:23;;;;;;;;;2.25;2.00;;;;;22.97;50.77;101708.16;5059594;28;45422;-73
2022/05/18 08:30:49;;;;;;;;;4.00;4.00;;;;;23.10;50.70;101710.91;5060185;28;45351;-74
2022/05/18 08:33:14;;;;;;;;;3.00;3.00;;;;;23.12;50.37;101709.84;5059331;28;46090;-73
2022/05/18 08:35:40;;;;;;;;;3.50;2.00;;;;;23.02;50.08;101680.59;5059186;28;47584;-73
2022/05/18 08:38:06;;;;;;;;;5.50;2.00;;;;;23.20;49.70;101708.44;5056853;28;45375;-73
2022/05/18 08:40:54;;;;;;;;;0.50;0.50;;;;;23.24;49.93;101709.97;5041978;28;45394;-73
2022/05/18 08:43:26;;;;;;;;;2.00;2.00;;;;;23.18;50.44;101705.81;5041499;28;47110;-74
2022/05/18 08:46:09;;;;;;;;;3.00;3.00;;;;;23.23;50.58;101705.50;5059438;28;45685;-73
2022/05/18 08:48:55;;;;;;;;;2.50;2.50;;;;;23.13;49.97;101681.63;5048128;28;45456;-74
2022/05/18 08:51:30;;;;;;;;;4.00;4.00;;;;;23.31;50.43;101705.81;5041903;28;45314;-73
2022/05/18 08:54:14;;;;;;;;;3.00;3.00;;;;;23.35;50.23;101703.75;5058583;28;46543;-73
2022/05/18 08:56:42;;;;;;;;;4.00;4.00;;;;;23.39;50.84;101702.53;5056578;28;45716;-73
2022/05/18 08:59:32;;;;;;;;;5.50;3.75;;;;;23.43;50.34;101695.91;5058908;28;45620;-73
2022/05/18 09:01:59;;;;;;;;;2.25;2.25;;;;;23.36;50.38;101672.81;5059582;28;45385;-73
2022/05/18 09:04:47;;;;;;;;;2.75;2.75;;;;;23.56;50.14;101701.34;5045688;28;45734;-74
2022/05/18 09:07:17;;;;;;;;;6.75;4.25;;;;;23.55;50.19;101680.50;5058059;28;45631;-73
2022/05/18 09:10:13;;;;;;;;;2.25;2.25;;;;;23.62;49.95;101693.59;5059743;28;45591;-73
2022/05/18 09:12:44;;;;;;;;;2.50;2.25;;;;;23.55;49.99;101685.97;5041987;28;45462;-73
2022/05/18 09:15:13;;;;;;;;;1.75;1.75;;;;;23.58;50.41;101672.97;5057113;28;47231;-73
2022/05/18 09:18:17;;;;;;;;;2.00;2.00;;;;;23.68;50.57;101689.53;5056708;28;45728;-73
2022/05/18 09:20:49;;;;;;;;;4.00;3.50;;;;;23.73;50.50;101684.63;5035860;28;45353;-74
2022/05/18 09:23:27;;;;;;;;;4.25;4.25;;;;;23.75;50.38;101673.59;5056531;28;45327;-73
2022/05/18 09:26:30;;;;;;;;;3.75;3.75;;;;;23.82;50.29;101678.53;5055243;28;45689;-73
2022/05/18 09:29:07;;;;;;;;;3.25;3.25;;;;;23.84;49.95;101684.75;5057408;28;45528;-69
2022/05/18 09:31:55;;;;;;;;;3.00;3.00;;;;;23.85;50.31;101674.69;5057750;28;45396;-69
2022/05/18 09:34:45;;;;;;;;;2.25;2.25;;;;;23.88;50.25;101681.81;5057593;28;45214;-70
2022/05/18 09:37:41;;;;;;;;;5.00;3.00;;;;;23.76;50.62;101648.09;5055964;28;47164;-70
2022/05/18 09:40:32;;;;;;;;;3.00;3.00;;;;;23.78;50.22;101657.03;5037612;28;45759;-69
2022/05/18 09:43:26;;;;;;;;;3.25;2.25;;;;;23.67;50.24;101631.44;5057963;28;45407;-70
2022/05/18 09:45:54;;;;;;;;;4.75;3.00;;;;;23.90;50.54;101660.72;5042379;28;45625;-70
2022/05/18 09:48:29;;;;;;;;;4.25;3.75;;;;;23.88;50.17;101652.66;5040175;28;48492;-69
2022/05/18 09:50:56;;;;;;;;;4.00;4.00;;;;;23.95;49.79;101639.44;5035419;28;45997;-69
2022/05/18 09:53:22;;;;;;;;;3.75;3.75;;;;;24.10;50.59;101670.16;5040984;28;45430;-69
2022/05/18 09:55:50;;;;;;;;;5.00;3.00;;;;;24.16;50.17;101658.78;5058453;28;45554;-69
2022/05/18 09:58:33;;;;;;;;;5.00;3.50;;;;;24.13;50.44;101642.66;5055134;28;46987;-69
2022/05/18 10:07:34;;;;;;;;;4.25;3.00;;;;;24.29;49.92;101643.22;4995643;28;45441;-70
2022/05/18 10:10:21;;;;;;;;;6.00;3.75;;;;;24.39;49.28;101647.00;5049231;28;46681;-70
2022/05/18 10:12:53;;;;;;;;;3.75;2.50;;;;;24.39;49.53;101641.53;5037614;28;45589;-70
2022/05/18 10:15:21;;;;;;;;;3.75;3.75;;;;;24.43;49.44;101642.16;5056922;28;45254;-70
2022/05/18 10:17:53;;;;;;;;;3.00;3.00;;;;;24.46;49.46;101643.78;5055676;28;45594;-70
2022/05/18 10:20:26;;;;;;;;;3.25;3.00;;;;;24.54;49.61;101646.78;5042854;28;47036;-70
2022/05/18 10:22:52;;;;;;;;;4.00;4.00;;;;;24.59;48.72;101633.69;5058943;28;45206;-70
2022/05/18 10:25:41;;;;;;;;;1.25;1.00;;;;;24.49;48.70;101618.97;5056999;28;45498;-70
2022/05/18 10:28:25;;;;;;;;;3.00;2.25;;;;;24.64;48.62;101630.59;5044406;28;45531;-70
2022/05/18 10:31:03;;;;;;;;;1.25;1.25;;;;;24.47;48.52;101585.50;5048769;28;45879;-72
2022/05/18 10:33:36;;;;;;;;;2.50;2.50;;;;;24.73;49.36;101624.44;5056084;28;45395;-72
2022/05/18 10:36:14;;;;;;;;;3.00;3.00;;;;;24.80;48.40;101620.22;5046234;28;45555;-72
2022/05/18 10:38:51;;;;;;;;;3.75;3.25;;;;;24.77;48.26;101610.44;5039607;28;45630;-72
2022/05/18 10:41:21;;;;;;;;;3.00;3.00;;;;;24.80;48.35;101598.38;5043383;28;48201;-72
2022/05/18 10:44:12;;;;;;;;;4.00;4.00;;;;;24.92;47.87;101600.13;5058710;28;45310;-72
2022/05/18 10:46:39;;;;;;;;;5.25;4.25;;;;;25.07;48.47;101595.28;5031248;28;45532;-72
2022/05/18 10:49:13;;;;;;;;;3.50;2.50;;;;;25.15;48.57;101600.16;5058045;28;45578;-72
2022/05/18 10:51:39;;;;;;;;;3.00;3.00;;;;;25.21;47.86;101588.72;5056367;28;45899;-72
2022/05/18 10:54:27;;;;;;;;;4.00;3.25;;;;;25.27;48.35;101588.25;5057666;28;45363;-74
2022/05/18 10:57:10;;;;;;;;;3.75;2.50;;;;;25.31;47.90;101588.91;5048364;28;45605;-72
2022/05/18 10:59:57;;;;;;;;;3.00;3.00;;;;;25.33;47.70;101585.03;5059517;28;45335;-73
2022/05/18 11:02:47;;;;;;;;;3.75;3.25;;;;;25.39;46.90;101589.09;5056702;28;45553;-73
2022/05/18 11:05:15;;;;;;;;;3.00;2.00;;;;;25.44;46.30;101586.00;5059029;28;45331;-73
2022/05/18 11:07:42;;;;;;;;;4.00;4.00;;;;;25.40;46.60;101579.91;5058883;28;45310;-73
2022/05/18 11:10:08;;;;;;;;;2.00;2.00;;;;;25.48;46.55;101569.22;5055045;28;45260;-72
2022/05/18 11:12:59;;;;;;;;;6.75;4.00;;;;;25.44;46.69;101575.06;5058057;28;45532;-72
2022/05/18 11:15:36;;;;;;;;;3.25;3.25;;;;;25.57;45.97;101592.19;5057880;28;45644;-72
2022/05/18 11:18:25;;;;;;;;;3.00;2.00;;;;;25.51;45.91;101571.72;5057594;28;45348;-73
2022/05/18 11:21:14;;;;;;;;;3.00;3.00;;;;;25.64;46.06;101584.34;5058720;28;45458;-73
2022/05/18 11:24:02;;;;;;;;;3.00;3.00;;;;;25.70;45.64;101584.72;5059127;28;45327;-72
2022/05/18 11:26:39;;;;;;;;;2.50;2.00;;;;;25.69;45.81;101587.56;5061353;28;45340;-72
2022/05/18 11:29:42;;;;;;;;;2.25;2.25;;;;;25.69;45.16;101577.53;5053413;28;45849;-72
2022/05/18 11:32:22;;;;;;;;;4.00;3.50;;;;;25.70;44.83;101581.13;5061983;28;45193;-72
2022/05/18 11:35:10;;;;;;;;;3.50;3.00;;;;;25.70;45.05;101571.03;5060220;28;46560;-73
2022/05/18 11:37:49;;;;;;;;;3.25;3.25;;;;;25.71;45.25;101563.72;5061499;28;45474;-72
2022/05/18 11:40:28;;;;;;;;;3.00;3.00;;;;;25.78;44.51;101570.41;5060609;28;45488;-72
2022/05/18 11:43:33;;;;;;;;;3.00;3.00;;;;;25.86;44.51;101581.56;5061183;28;45335;-72
2022/05/18 11:46:29;;;;;;;;;3.25;3.00;;;;;25.89;44.99;101570.38;5057623;28;46522;-71
2022/05/18 11:49:10;;;;;;;;;2.75;1.75;;;;;25.95;43.98;101571.75;5043179;28;45514;-71
2022/05/18 11:52:00;;;;;;;;;4.00;4.00;;;;;25.98;42.84;101559.69;5061857;28;45573;-72
2022/05/18 11:55:01;;;;;;;;;4.25;3.50;;;;;25.91;43.56;101547.47;5058230;28;45427;-74
2022/05/18 11:57:46;;;;;;;;;2.25;2.25;;;;;25.74;42.80;101513.38;5054903;28;46191;-73
2022/05/18 12:03:10;;;;;;;;;4.00;3.00;;;;;26.11;43.52;101560.38;5051604;28;45613;-72
2022/05/18 12:05:48;;;;;;;;;3.50;3.50;;;;;26.08;42.75;101552.44;5055915;28;45736;-72
2022/05/18 12:08:53;;;;;;;;;2.00;2.00;;;;;26.15;42.47;101548.16;5054040;28;45426;-73
2022/05/18 12:11:37;;;;;;;;;2.75;2.75;;;;;26.18;42.62;101555.25;5042165;28;45641;-73
2022/05/18 12:14:20;;;;;;;;;1.25;1.25;;;;;26.18;41.40;101538.84;5043018;28;45509;-73
2022/05/18 12:16:57;;;;;;;;;2.25;2.25;;;;;26.18;41.09;101534.22;5025619;28;45647;-72
2022/05/18 12:19:37;;;;;;;;;2.75;2.25;;;;;26.22;42.06;101543.88;5054284;28;45510;-73
2022/05/18 12:22:11;;;;;;;;;3.50;3.50;;;;;26.09;42.35;101504.06;5057310;28;45677;-74
2022/05/18 12:24:41;;;;;;;;;4.00;4.00;;;;;26.15;43.01;101514.47;5038315;28;45786;-74
2022/05/18 12:27:10;;;;;;;;;3.25;3.00;;;;;26.27;42.74;101527.06;5055100;28;45601;-75
2022/05/18 12:29:37;;;;;;;;;4.25;4.25;;;;;26.22;43.25;101519.25;5056547;28;46261;-76
2022/05/18 12:32:04;;;;;;;;;4.00;3.00;;;;;26.30;43.03;101523.22;5049398;28;45792;-73
2022/05/18 12:34:35;;;;;;;;;3.00;3.00;;;;;26.44;42.64;101522.88;5044791;28;45442;-74
2022/05/18 12:37:29;;;;;;;;;3.50;3.50;;;;;26.50;43.01;101522.34;5051551;28;45706;-74
2022/05/18 12:40:36;;;;;;;;;3.25;3.00;;;;;26.40;43.00;101488.56;5042158;28;46987;-75
2022/05/18 12:43:24;;;;;;;;;4.00;3.25;;;;;26.59;41.96;101513.28;5029710;28;45847;-77
2022/05/18 12:45:57;;;;;;;;;5.25;2.50;;;;;26.64;40.62;101520.28;5048124;28;45604;-76
2022/05/18 12:48:36;;;;;;;;;3.00;3.00;;;;;26.51;41.72;101502.16;5051456;28;45562;-76
2022/05/18 12:51:13;;;;;;;;;4.25;3.00;;;;;26.59;40.77;101506.97;5051769;28;46076;-76
2022/05/18 12:53:44;;;;;;;;;2.25;1.50;;;;;26.67;38.81;101514.53;5036491;28;45288;-74
2022/05/18 12:56:23;;;;;;;;;0.00;0.00;;;;;26.68;37.84;101514.41;5041621;28;45375;-74
2022/05/18 12:58:58;;;;;;;;;2.00;2.00;;;;;26.70;38.84;101512.41;5059635;28;45531;-74
2022/05/18 13:01:28;;;;;;;;;2.00;2.00;;;;;26.71;39.28;101507.78;5058994;28;46997;-74
2022/05/18 13:04:22;;;;;;;;;0.50;0.50;;;;;26.77;39.35;101501.75;5046720;28;46142;-74
2022/05/18 13:06:49;;;;;;;;;2.25;2.25;;;;;26.68;39.77;101470.59;5035157;28;45433;-74
2022/05/18 13:09:33;;;;;;;;;2.00;2.00;;;;;26.84;40.13;101491.97;5059335;28;45630;-74
2022/05/18 13:12:27;;;;;;;;;2.00;2.00;;;;;26.92;40.00;101491.31;5058767;28;46423;-74
2022/05/18 13:15:03;;;;;;;;;1.75;1.75;;;;;26.93;40.11;101482.94;5031813;28;45553;-75
2022/05/18 13:18:01;;;;;;;;;4.00;4.00;;;;;27.09;39.99;101492.50;5040869;28;45406;-76
2022/05/18 13:20:30;;;;;;;;;7.00;3.00;;;;;27.14;40.08;101482.84;5059144;28;45427;-75
2022/05/18 13:23:26;;;;;;;;;4.00;2.00;;;;;27.18;39.79;101477.94;5059521;28;45535;-77